Annapolis, Illinois
Current Conditions -  °F | °C
As of 6:35 PM on Friday 24 Oct 2014 (Local Time) from KRSV Reporting Station
Scattered Clouds Scattered Clouds  
Wind Chill: 61°   Ceiling: Unl
Heat Index: 61°   Visibility: 10mi
Dew Point: 52°   Wind: 3mph
Humidity: 74%   Direction: 200°SSW
Pressure: 30.03"   Gusts: NA
Location:  39.14°N, 87.82°W
Report Text: KRSV 242335Z AUTO 20003KT 10SM SCT045 16/11 A3003 RMK AO2 T01600113
Loading
Personal Weather Stations






























Interactive Weather Map
Tropical Storm Tracking
New forecast layout! Learn more

10-Day Weather Forecast

Advertisements
Track Severe Weather on mobile